createdAt,value
2018-03-27T00:01:55.054Z,87.10
2018-03-27T00:06:56.271Z,87.00
2018-03-27T00:11:56.723Z,87.00
2018-03-27T00:16:57.175Z,87.10
2018-03-27T00:21:58.388Z,87.40
2018-03-27T00:27:00.296Z,87.40
2018-03-27T00:32:12.668Z,87.30
2018-03-27T00:37:25.015Z,87.10
2018-03-27T00:42:34.196Z,87.30
2018-03-27T00:47:34.677Z,87.10
2018-03-27T00:52:35.388Z,87.10
2018-03-27T00:57:36.603Z,87.40
2018-03-27T01:02:37.047Z,87.40
2018-03-27T01:07:38.260Z,87.80
2018-03-27T01:12:38.703Z,87.30
2018-03-27T01:17:39.158Z,87.10
2018-03-27T01:22:39.613Z,87.10
2018-03-27T01:27:40.080Z,87.30
2018-03-27T01:32:40.528Z,87.50
2018-03-27T01:37:40.975Z,87.50
2018-03-27T01:42:42.193Z,87.60
2018-03-27T01:47:42.643Z,87.50
2018-03-27T01:52:43.155Z,87.50
2018-03-27T01:57:43.729Z,87.50
2018-03-27T02:02:44.202Z,87.40
2018-03-27T02:07:44.652Z,87.40
2018-03-27T02:12:50.655Z,87.30
2018-03-27T02:17:56.807Z,87.40
2018-03-27T02:23:11.083Z,87.40
2018-03-27T02:28:11.536Z,87.50
2018-03-27T02:33:11.980Z,87.80
2018-03-27T02:38:13.193Z,88.50
2018-03-27T02:43:13.636Z,88.50
2018-03-27T02:48:14.848Z,87.80
2018-03-27T02:53:15.340Z,87.80
2018-03-27T02:58:15.792Z,88.00
2018-03-27T03:03:16.240Z,87.70
2018-03-27T03:08:17.476Z,87.60
2018-03-27T03:13:18.022Z,87.60
2018-03-27T03:18:19.224Z,87.20
2018-03-27T03:23:19.668Z,87.20
2018-03-27T03:28:20.935Z,87.50
2018-03-27T03:33:21.319Z,87.40
2018-03-27T03:38:22.563Z,87.80
2018-03-27T03:43:23.032Z,87.70
2018-03-27T03:48:23.507Z,87.50
2018-03-27T03:53:23.951Z,87.50
2018-03-27T03:58:24.409Z,87.50
2018-03-27T04:03:25.635Z,87.10
2018-03-27T04:08:26.080Z,87.10
2018-03-27T04:13:26.583Z,87.40
2018-03-27T04:18:27.032Z,87.80
2018-03-27T04:23:27.520Z,87.80
2018-03-27T04:28:27.996Z,88.20
2018-03-27T04:33:28.464Z,88.60
2018-03-27T04:38:28.935Z,88.60
2018-03-27T04:43:29.388Z,88.90
2018-03-27T04:48:29.863Z,89.00
2018-03-27T04:53:30.316Z,89.20
2018-03-27T04:58:31.528Z,88.90
2018-03-27T05:03:31.976Z,88.90
2018-03-27T05:08:33.191Z,88.30
2018-03-27T05:13:33.646Z,88.30
2018-03-27T05:18:34.103Z,88.10
2018-03-27T05:23:35.323Z,88.40
2018-03-27T05:28:35.767Z,88.40
2018-03-27T05:33:36.980Z,88.80
2018-03-27T05:38:37.456Z,88.70
2018-03-27T05:43:38.645Z,89.10
2018-03-27T05:48:39.110Z,89.80
2018-03-27T05:53:40.307Z,89.20
2018-03-27T05:58:40.764Z,89.20
2018-03-27T06:03:41.215Z,89.00
2018-03-27T06:08:42.431Z,88.90
2018-03-27T06:13:42.881Z,88.80
2018-03-27T06:18:44.099Z,88.90
2018-03-27T06:23:44.547Z,88.70
2018-03-27T06:28:45.761Z,88.10
2018-03-27T06:33:46.214Z,88.00
2018-03-27T06:38:46.652Z,88.60
2018-03-27T06:43:47.105Z,89.10
2018-03-27T06:48:47.558Z,89.10
2018-03-27T06:53:48.000Z,89.50
2018-03-27T06:58:48.448Z,90.00
2018-03-27T07:03:48.904Z,89.90
2018-03-27T07:08:49.363Z,89.20
2018-03-27T07:13:49.904Z,88.90
2018-03-27T07:18:50.293Z,87.80
2018-03-27T07:23:50.736Z,87.70
2018-03-27T07:28:51.187Z,87.70
2018-03-27T07:33:52.401Z,86.50
2018-03-27T07:38:52.847Z,86.50
2018-03-27T07:43:54.060Z,86.00
2018-03-27T07:48:54.508Z,86.00
2018-03-27T07:53:55.727Z,81.90
2018-03-27T07:58:56.167Z,81.80
2018-03-27T08:03:57.382Z,76.40
2018-03-27T08:08:57.827Z,76.30
2018-03-27T08:13:59.043Z,67.80
2018-03-27T08:18:59.493Z,67.80
2018-03-27T08:24:00.713Z,69.20
2018-03-27T08:29:01.148Z,69.20
2018-03-27T08:34:02.361Z,66.30
2018-03-27T08:39:02.812Z,66.30
2018-03-27T08:44:04.069Z,61.30
2018-03-27T08:49:04.536Z,61.20
2018-03-27T08:54:05.796Z,65.70
2018-03-27T08:59:06.279Z,65.60
2018-03-27T09:04:06.732Z,62.70
2018-03-27T09:09:07.183Z,57.70
2018-03-27T09:14:10.296Z,51.90
2018-03-27T09:19:10.735Z,51.80
2018-03-27T09:24:11.183Z,47.80
2018-03-27T09:29:11.636Z,50.30
2018-03-27T09:34:12.848Z,50.70
2018-03-27T09:39:13.300Z,50.60
2018-03-27T09:44:14.511Z,51.30
2018-03-27T09:49:14.963Z,51.20
2018-03-27T09:54:16.281Z,47.70
2018-03-27T09:59:16.729Z,46.10
2018-03-27T10:04:17.180Z,45.00
2018-03-27T10:09:19.115Z,47.00
2018-03-27T10:14:19.565Z,46.90
2018-03-27T10:19:20.801Z,43.60
2018-03-27T10:24:21.364Z,43.50
2018-03-27T10:29:21.811Z,43.30
2018-03-27T10:34:22.269Z,45.40
2018-03-27T10:39:23.491Z,41.10
2018-03-27T10:44:23.944Z,41.00
2018-03-27T10:49:24.464Z,42.10
2018-03-27T10:54:24.924Z,45.00
2018-03-27T10:59:25.405Z,48.10
2018-03-27T11:04:25.820Z,46.60
2018-03-27T11:09:27.065Z,41.40
2018-03-27T11:14:27.522Z,41.30
2018-03-27T11:19:29.448Z,44.50
2018-03-27T11:24:30.664Z,39.80
2018-03-27T11:29:31.216Z,39.80
2018-03-27T11:34:31.667Z,36.30
2018-03-27T11:39:34.572Z,35.50
2018-03-27T11:44:35.846Z,34.90
2018-03-27T11:49:37.068Z,33.70
2018-03-27T11:54:37.592Z,33.60
2018-03-27T11:59:39.014Z,33.90
2018-03-27T12:04:40.231Z,31.30
2018-03-27T12:09:40.684Z,31.30
2018-03-27T12:16:46.028Z,31.40
2018-03-27T12:21:46.483Z,31.60
2018-03-27T12:26:46.932Z,32.50
2018-03-27T12:31:48.148Z,33.40
2018-03-27T12:36:48.600Z,33.40
2018-03-27T12:41:49.051Z,34.90
2018-03-27T12:50:23.181Z,45.70
2018-03-27T12:55:23.639Z,45.70
2018-03-27T13:00:24.855Z,48.60
2018-03-27T13:05:25.320Z,48.60
2018-03-27T13:10:25.767Z,48.80
2018-03-27T13:15:26.987Z,45.60
2018-03-27T13:20:27.439Z,45.50
2018-03-27T13:25:27.891Z,44.40
2018-03-27T13:30:29.115Z,44.00
2018-03-27T13:35:29.563Z,44.00
2018-03-27T13:40:30.866Z,43.30
2018-03-27T13:45:32.068Z,43.70
2018-03-27T13:50:32.523Z,43.60
2018-03-27T13:55:32.963Z,42.90
2018-03-27T14:00:34.184Z,43.90
2018-03-27T14:05:34.642Z,43.90
2018-03-27T14:10:35.887Z,44.40
2018-03-27T14:15:36.316Z,44.40
2018-03-27T14:20:36.772Z,46.00
2018-03-27T14:25:37.997Z,51.50
2018-03-27T14:30:38.504Z,51.50
2018-03-27T14:35:38.903Z,49.20
2018-03-27T14:40:40.120Z,48.20
2018-03-27T14:45:40.591Z,48.10
2018-03-27T14:50:41.043Z,48.00
2018-03-27T14:55:41.496Z,46.10
2018-03-27T15:00:42.712Z,45.60
2018-03-27T15:05:43.220Z,45.50
2018-03-27T15:10:43.888Z,45.50
2018-03-27T15:15:45.216Z,45.30
2018-03-27T15:20:46.437Z,45.60
2018-03-27T15:25:46.905Z,45.10
2018-03-27T15:30:47.356Z,44.60
2018-03-27T15:35:48.584Z,42.80
2018-03-27T15:40:49.039Z,42.80
2018-03-27T15:45:49.491Z,40.80
2018-03-27T15:50:50.712Z,40.60
2018-03-27T15:55:51.173Z,40.50
2018-03-27T16:00:51.620Z,39.20
2018-03-27T16:05:52.837Z,42.20
2018-03-27T16:10:53.279Z,42.20
2018-03-27T16:15:54.487Z,42.20
2018-03-27T16:20:56.994Z,42.00
2018-03-27T16:25:58.283Z,42.80
2018-03-27T16:30:58.679Z,42.80
2018-03-27T16:35:59.128Z,42.60
2018-03-27T16:41:00.345Z,41.90
2018-03-27T16:46:00.794Z,41.90
2018-03-27T16:51:02.000Z,43.40
2018-03-27T16:56:02.469Z,43.40
2018-03-27T17:01:02.891Z,44.40
2018-03-27T17:06:05.048Z,42.90
2018-03-27T17:11:05.730Z,42.90
2018-03-27T17:16:06.474Z,43.00
2018-03-27T17:21:07.948Z,44.40
2018-03-27T17:26:08.844Z,44.30
2018-03-27T17:31:09.564Z,44.30
2018-03-27T17:36:10.143Z,44.70
2018-03-27T17:41:10.780Z,45.20
2018-03-27T17:46:11.256Z,45.60
2018-03-27T17:51:11.692Z,46.60
2018-03-27T17:56:12.136Z,47.70
2018-03-27T18:01:12.587Z,47.80
2018-03-27T18:06:13.807Z,50.00
2018-03-27T18:11:14.264Z,49.90
2018-03-27T18:16:27.650Z,51.70
2018-03-27T18:21:28.089Z,52.40
2018-03-27T18:26:29.368Z,54.70
2018-03-27T18:31:29.758Z,54.50
2018-03-27T18:36:30.979Z,55.40
2018-03-27T18:41:31.428Z,55.30
2018-03-27T18:46:32.640Z,56.20
2018-03-27T18:51:33.104Z,56.00
2018-03-27T18:56:33.584Z,56.40
2018-03-27T19:01:34.044Z,56.80
2018-03-27T19:06:34.592Z,56.90
2018-03-27T19:11:35.033Z,57.30
2018-03-27T19:16:35.475Z,57.50
2018-03-27T19:21:35.915Z,58.00
2018-03-27T19:26:37.143Z,58.50
2018-03-27T19:31:37.596Z,58.50
2018-03-27T19:36:38.065Z,58.40
2018-03-27T19:41:39.267Z,58.70
2018-03-27T19:46:39.729Z,58.70
2018-03-27T19:51:40.172Z,58.90
2018-03-27T19:56:41.383Z,59.30
2018-03-27T20:01:41.828Z,59.30
2018-03-27T20:06:42.279Z,59.50
2018-03-27T20:11:42.729Z,59.60
2018-03-27T20:16:43.176Z,59.60
2018-03-27T20:21:43.620Z,59.80
2018-03-27T20:26:44.835Z,59.10
2018-03-27T20:31:45.289Z,59.10
2018-03-27T20:36:46.500Z,59.30
2018-03-27T20:41:46.962Z,59.20
2018-03-27T20:46:48.167Z,59.50
2018-03-27T20:51:48.624Z,59.60
2018-03-27T20:56:49.887Z,58.90
2018-03-27T21:01:50.331Z,58.90
2018-03-27T21:06:50.779Z,59.40
2018-03-27T21:11:51.235Z,58.40
2018-03-27T21:16:51.675Z,58.30
2018-03-27T21:21:52.892Z,58.10
2018-03-27T21:26:53.336Z,58.10
2018-03-27T21:31:54.552Z,57.30
2018-03-27T21:36:54.999Z,57.30
2018-03-27T21:41:56.212Z,58.40
2018-03-27T21:46:56.664Z,58.40
2018-03-27T21:51:57.873Z,60.70
2018-03-27T21:56:58.329Z,60.70
2018-03-27T22:01:59.538Z,64.30
2018-03-27T22:06:59.983Z,64.30
2018-03-27T22:12:01.195Z,67.90
2018-03-27T22:17:01.665Z,67.80
2018-03-27T22:22:02.110Z,68.40
2018-03-27T22:27:03.336Z,69.40
2018-03-27T22:32:03.796Z,68.60
2018-03-27T22:37:04.270Z,68.30
2018-03-27T22:42:05.472Z,69.30
2018-03-27T22:47:05.920Z,69.90
2018-03-27T22:52:07.128Z,70.80
2018-03-27T22:57:07.571Z,70.80
2018-03-27T23:02:08.786Z,71.90
2018-03-27T23:07:09.258Z,71.70
2018-03-27T23:12:09.691Z,72.00
2018-03-27T23:17:10.136Z,72.90
2018-03-27T23:22:10.588Z,73.10
2018-03-27T23:27:11.036Z,74.50
2018-03-27T23:32:11.509Z,74.60
2018-03-27T23:37:12.703Z,75.80
2018-03-27T23:42:13.170Z,75.80
2018-03-27T23:47:14.368Z,77.60
2018-03-27T23:52:14.816Z,77.50
2018-03-27T23:57:16.028Z,80.30
